Terminal Aerodrome Forecast
Issued by NWS

Current Version | Previous Version | Text Only | Print | Product List | Glossary Off
Versions: 1 2 3 4 5 6 7 8 9 10 11 12 13 14 15 16 17 18 19 20 21 22 23 24 25 26 27 28 29 30 31 32 33 34 35 36 37 38 39 40

000
FTUS41 KRNK 171008 AAA
TAFLWB
TAF AMD
KLWB 171008Z 1710/1806 00000KT P6SM SCT015 OVC025
      TEMPO 1710/1711 5SM BR OVC005
     FM171500 28005KT P6SM BKN015
     FM171900 29005KT P6SM BKN050
     FM180000 31003KT P6SM SCT050=

USA.gov is the U.S. government's official web portal to all federal, state and local government web resources and services.